Terminal Aerodrome Forecast
Issued by NWS

Home | Current Version | Previous Version | Text Only | Print | Product List | Glossary On
Versions: 1 2 3 4 5 6 7 8 9 10 11 12 13 14 15 16 17 18 19 20 21 22 23 24 25 26 27 28 29 30 31 32 33 34 35 36 37 38 39 40 41 42 43
000
FTUS45 KGJT 010520
TAFTEX
TAF
KTEX 010520Z 0106/0206 12005KT P6SM FEW090
     FM010900 14004KT P6SM SCT080 SCT140
     FM011200 VRB03KT P6SM SCT080 BKN100
     FM011800 25010G18KT P6SM VCSH SCT060 BKN100
     FM020200 26005KT P6SM VCSH SCT050 SCT100=

USA.gov is the U.S. government's official web portal to all federal, state and local government web resources and services.